METAR Data
IDs: Format: Raw Decoded Include TAF

Data at: 0235 UTC 25 Feb 2021

LBSF 250230Z 15002KT 5000 BR NSC 00/M00 Q1035 TEMPO 2000 BR